Time;durP1;ratioP1;P1;durP2;ratioP2;P2;SDS_P1;SDS_P2;PMS_P1;PMS_P2;Temp;Humidity;BMP_temperature;BMP_pressure;BME280_temperature;BME280_humidity;BME280_pressure;Samples;Min_cycle;Max_cycle;Signal;HPM_P1;HPM_P2
2022/09/28 00:00:12;;;;;;;18.27;3.50;;;;;;;12.76;100.00;97612.47;5136763;27;20054;-94
2022/09/28 00:02:38;;;;;;;18.98;4.07;;;;;;;12.47;100.00;97580.25;5137194;27;20095;-93
2022/09/28 00:05:05;;;;;;;20.83;4.38;;;;;;;12.73;100.00;97624.19;5137284;27;20051;-94
2022/09/28 00:07:30;;;;;;;15.93;3.53;;;;;;;12.54;100.00;97586.97;5137415;27;20039;-94
2022/09/28 00:09:56;;;;;;;22.60;4.63;;;;;;;12.56;100.00;97602.91;5137249;27;20046;-92
2022/09/28 00:12:22;;;;;;;14.88;3.67;;;;;;;12.50;100.00;97589.88;5136220;27;20096;-92
2022/09/28 00:14:50;;;;;;;16.50;3.72;;;;;;;12.70;100.00;97619.00;5138570;27;20130;-93
2022/09/28 00:17:15;;;;;;;26.60;4.85;;;;;;;12.73;100.00;97613.53;5138209;27;20043;-93
2022/09/28 00:19:43;;;;;;;17.58;5.13;;;;;;;12.73;100.00;97618.84;5136247;27;20050;-94
2022/09/28 00:22:09;;;;;;;17.00;3.97;;;;;;;12.71;100.00;97594.06;5136255;27;20041;-93
2022/09/28 00:24:35;;;;;;;24.50;4.78;;;;;;;12.77;100.00;97597.34;5136497;27;20036;-92
2022/09/28 00:27:01;;;;;;;26.13;5.15;;;;;;;12.86;100.00;97607.50;5136625;27;20572;-94
2022/09/28 00:29:30;;;;;;;12.18;4.20;;;;;;;12.87;100.00;97593.22;5136714;27;20099;-93
2022/09/28 00:32:01;;;;;;;26.73;4.75;;;;;;;12.94;100.00;97607.94;5136718;27;20043;-93
2022/09/28 00:34:30;;;;;;;21.80;4.13;;;;;;;12.98;100.00;97627.31;5136636;28;20075;-94
2022/09/28 00:36:57;;;;;;;17.15;4.18;;;;;;;12.89;100.00;97620.69;5136752;27;20043;-93
2022/09/28 00:39:23;;;;;;;18.30;4.10;;;;;;;12.92;100.00;97623.16;5136239;27;20051;-93
2022/09/28 00:41:49;;;;;;;25.35;6.00;;;;;;;12.68;100.00;97593.34;5136485;28;20545;-93
2022/09/28 00:44:36;;;;;;;14.73;4.15;;;;;;;12.78;100.00;97599.94;5136498;27;20054;-91
2022/09/28 00:47:22;;;;;;;23.00;4.20;;;;;;;12.71;100.00;97594.06;5136696;27;20129;-91
2022/09/28 00:49:53;;;;;;;13.23;3.88;;;;;;;12.63;100.00;97600.75;5133308;28;20047;-92
2022/09/28 00:52:24;;;;;;;15.77;4.10;;;;;;;12.74;100.00;97614.38;5136512;27;20060;-95
2022/09/28 00:54:52;;;;;;;22.60;5.47;;;;;;;12.57;100.00;97579.75;5137983;27;20062;-94
2022/09/28 00:57:20;;;;;;;17.02;3.70;;;;;;;12.39;100.00;97566.47;5138503;27;20043;-95
2022/09/28 00:59:46;;;;;;;19.33;3.97;;;;;;;12.39;100.00;97577.13;5138929;27;20039;-94
2022/09/28 01:02:13;;;;;;;18.20;4.28;;;;;;;12.43;100.00;97580.50;5141398;27;20142;-95
2022/09/28 01:04:39;;;;;;;14.30;4.22;;;;;;;12.28;100.00;97568.84;5143376;27;20039;-94
2022/09/28 01:07:07;;;;;;;18.98;4.15;;;;;;;12.30;100.00;97572.31;5142948;27;20066;-95
2022/09/28 01:09:37;;;;;;;14.97;3.77;;;;;;;12.32;100.00;97589.94;5141731;27;20069;-94
2022/09/28 01:12:03;;;;;;;16.85;3.72;;;;;;;12.12;100.00;97553.69;5143328;27;20053;-94
2022/09/28 01:14:30;;;;;;;18.00;4.20;;;;;;;12.24;100.00;97572.63;5143362;27;20051;-94
2022/09/28 01:17:03;;;;;;;21.23;4.35;;;;;;;12.19;100.00;97558.66;5142175;27;20047;-92
2022/09/28 01:20:06;;;;;;;17.80;4.40;;;;;;;12.33;100.00;97585.44;5122236;28;20096;-93
2022/09/28 01:22:57;;;;;;;15.65;4.53;;;;;;;12.20;100.00;97549.75;5078790;28;20559;-95
2022/09/28 01:25:33;;;;;;;27.98;4.75;;;;;;;12.02;100.00;97536.44;5084999;28;20422;-95
2022/09/28 01:28:05;;;;;;;17.60;4.05;;;;;;;12.02;100.00;97544.44;5099418;28;20097;-94
2022/09/28 01:30:37;;;;;;;17.38;4.15;;;;;;;12.01;100.00;97540.03;5099013;28;20039;-95
2022/09/28 01:33:07;;;;;;;16.90;4.07;;;;;;;12.13;100.00;97549.19;5095312;28;20066;-93
2022/09/28 01:35:39;;;;;;;14.45;3.78;;;;;;;12.12;100.00;97537.69;5097942;28;20127;-93
2022/09/28 01:38:12;;;;;;;14.45;4.20;;;;;;;12.24;100.00;97572.63;5097936;28;20052;-94
2022/09/28 01:40:40;;;;;;;15.85;4.15;;;;;;;12.06;100.00;97545.16;5096496;28;20064;-92
2022/09/28 01:43:12;;;;;;;19.15;4.57;;;;;;;11.95;100.00;97531.50;5079205;28;20049;-95
2022/09/28 01:45:44;;;;;;;19.17;3.72;;;;;;;12.02;100.00;97540.91;5079196;28;20041;-93
2022/09/28 01:48:13;;;;;;;17.77;4.05;;;;;;;12.22;100.00;97569.19;5077865;28;20456;-94
2022/09/28 01:50:42;;;;;;;16.30;4.75;;;;;;;12.18;100.00;97567.59;5077740;28;20079;-94
2022/09/28 01:53:14;;;;;;;15.80;3.90;;;;;;;12.04;100.00;97537.22;5077473;28;20055;-93
2022/09/28 01:55:43;;;;;;;15.02;3.83;;;;;;;12.13;100.00;97551.88;5077013;28;20079;-95
2022/09/28 01:58:14;;;;;;;23.15;5.18;;;;;;;12.08;100.00;97535.28;5081356;28;20048;-94
2022/09/28 02:00:45;;;;;;;21.27;4.80;;;;;;;12.23;100.00;97549.56;5121458;28;20507;-94
2022/09/28 02:03:17;;;;;;;16.90;4.30;;;;;;;12.28;100.00;97555.53;5122220;28;20047;-93
2022/09/28 02:05:48;;;;;;;19.27;4.85;;;;;;;12.18;100.00;97533.81;5119822;28;20051;-95
2022/09/28 02:08:20;;;;;;;18.23;4.45;;;;;;;12.36;100.00;97558.66;5139118;27;20043;-94
2022/09/28 02:10:52;;;;;;;23.05;5.43;;;;;;;12.42;100.00;97555.63;5140729;27;20039;-94
2022/09/28 02:13:26;;;;;;;18.67;4.25;;;;;;;12.26;100.00;97533.41;5139912;27;20088;-94
2022/09/28 02:15:57;;;;;;;17.33;4.82;;;;;;;12.44;100.00;97551.06;5141891;27;20625;-93
2022/09/28 02:18:24;;;;;;;15.23;4.18;;;;;;;12.36;100.00;97544.44;5142486;27;20061;-93
2022/09/28 02:21:05;;;;;;;20.88;5.20;;;;;;;12.33;100.00;97534.81;5140862;27;20039;-94
2022/09/28 02:23:35;;;;;;;16.80;4.20;;;;;;;12.33;100.00;97527.66;5141235;27;20063;-95
2022/09/28 02:26:06;;;;;;;19.17;5.20;;;;;;;12.39;100.00;97538.97;5141412;27;20039;-93
2022/09/28 02:28:34;;;;;;;15.70;4.95;;;;;;;12.38;100.00;97546.06;5141405;27;20039;-96
2022/09/28 02:31:00;;;;;;;16.92;4.18;;;;;;;12.24;100.00;97530.84;5139923;27;20045;-96
2022/09/28 02:33:30;;;;;;;17.75;4.47;;;;;;;12.23;100.00;97545.13;5140157;27;20043;-95
2022/09/28 02:35:58;;;;;;;15.57;4.32;;;;;;;12.42;100.00;97581.44;5139067;27;20050;-95
2022/09/28 02:38:24;;;;;;;15.10;4.20;;;;;;;12.25;100.00;97569.88;5139677;27;20043;-94
2022/09/28 02:41:03;;;;;;;11.93;3.60;;;;;;;12.10;100.00;97552.00;5139380;27;20064;-95
2022/09/28 02:43:42;;;;;;;13.98;3.90;;;;;;;11.92;100.00;97536.06;5139222;27;20144;-94
2022/09/28 02:46:17;;;;;;;14.57;4.43;;;;;;;12.01;100.00;97557.84;5140648;27;20052;-95
2022/09/28 02:48:58;;;;;;;16.98;4.55;;;;;;;11.95;100.00;97548.38;5140772;27;20091;-94
2022/09/28 02:51:33;;;;;;;14.20;4.70;;;;;;;11.87;100.00;97529.22;5139196;27;20097;-95
2022/09/28 02:54:23;;;;;;;14.32;3.53;;;;;;;12.07;100.00;97558.38;5138702;27;20047;-95
2022/09/28 02:56:58;;;;;;;14.43;4.03;;;;;;;11.91;100.00;97539.66;5137894;27;20568;-94
2022/09/28 02:59:42;;;;;;;14.80;4.50;;;;;;;11.98;100.00;97558.00;5137879;27;20039;-93
2022/09/28 03:02:18;;;;;;;14.63;3.72;;;;;;;11.87;100.00;97548.72;5137876;27;20039;-94
2022/09/28 03:04:55;;;;;;;19.90;3.88;;;;;;;11.95;100.00;97566.13;5138402;27;20050;-96
2022/09/28 03:07:26;;;;;;;17.25;4.93;;;;;;;11.71;100.00;97540.69;5137709;27;20050;-94
2022/09/28 03:09:58;;;;;;;9.98;3.65;;;;;;;11.87;100.00;97561.19;5138008;27;20518;-94
2022/09/28 03:12:28;;;;;;;22.45;4.72;;;;;;;11.67;100.00;97541.78;5138006;27;20047;-94
2022/09/28 03:15:06;;;;;;;;;;;;;;;11.83;100.00;97580.94;5138101;27;20048;-94
2022/09/28 03:17:32;;;;;;;17.87;4.30;;;;;;;11.64;100.00;97544.56;5137958;27;19919;-92
2022/09/28 03:19:58;;;;;;;16.80;4.45;;;;;;;11.68;100.00;97562.13;5137845;27;20054;-94
2022/09/28 03:22:23;;;;;;;16.80;4.13;;;;;;;11.55;100.00;97542.38;5137841;27;20026;-95
2022/09/28 03:24:49;;;;;;;16.30;4.05;;;;;;;11.54;100.00;97522.03;5139043;27;20072;-96
2022/09/28 03:27:15;;;;;;;23.45;4.30;;;;;;;11.54;100.00;97524.69;5139464;27;20610;-93
2022/09/28 03:29:41;;;;;;;16.02;4.45;;;;;;;11.45;100.00;97520.72;5139080;27;20492;-93
2022/09/28 03:32:08;;;;;;;15.48;3.83;;;;;;;11.72;100.00;97568.16;5139079;27;20050;-92
2022/09/28 03:34:34;;;;;;;16.20;4.47;;;;;;;11.69;100.00;97563.00;5138525;27;20043;-93
2022/09/28 03:37:00;;;;;;;18.33;5.13;;;;;;;11.47;100.00;97533.91;5138156;27;20099;-95
2022/09/28 03:39:26;;;;;;;18.92;5.38;;;;;;;11.55;100.00;97549.50;5137666;27;20047;-93
2022/09/28 03:41:52;;;;;;;16.70;4.45;;;;;;;11.61;100.00;97559.88;5137475;27;20035;-93
2022/09/28 03:44:19;;;;;;;13.65;4.00;;;;;;;11.63;100.00;97564.16;5137425;27;20138;-93
2022/09/28 03:46:45;;;;;;;15.80;4.47;;;;;;;11.60;100.00;97558.13;5137685;27;20039;-94
2022/09/28 03:49:13;;;;;;;18.23;4.13;;;;;;;11.29;100.00;97511.75;5137917;27;20450;-92
2022/09/28 03:51:39;;;;;;;16.15;4.63;;;;;;;11.37;100.00;97517.56;5138085;27;20107;-94
2022/09/28 03:54:04;;;;;;;13.40;4.07;;;;;;;11.49;100.00;97534.69;5138464;27;20071;-92
2022/09/28 03:56:30;;;;;;;13.43;3.85;;;;;;;11.60;100.00;97553.69;5139342;27;20556;-94
2022/09/28 03:58:56;;;;;;;17.38;3.95;;;;;;;11.57;100.00;97551.16;5138239;27;20065;-93
2022/09/28 04:01:22;;;;;;;17.50;4.47;;;;;;;11.62;100.00;97559.75;5137126;27;20044;-94
2022/09/28 04:03:54;;;;;;;15.07;3.95;;;;;;;11.59;100.00;97538.63;5137436;27;20039;-94
2022/09/28 04:06:21;;;;;;;19.23;3.72;;;;;;;11.73;100.00;97545.91;5137373;27;20095;-94
2022/09/28 04:08:47;;;;;;;22.70;4.10;;;;;;;11.92;100.00;97553.84;5136760;27;20127;-92
2022/09/28 04:11:13;;;;;;;12.27;3.80;;;;;;;11.97;100.00;97548.28;5136825;27;20043;-91
2022/09/28 04:13:39;;;;;;;18.35;4.38;;;;;;;11.86;100.00;97523.03;5137499;27;20050;-93
2022/09/28 04:16:05;;;;;;;17.38;3.85;;;;;;;11.88;100.00;97517.66;5137537;27;20043;-93
2022/09/28 04:18:32;;;;;;;14.60;3.67;;;;;;;12.07;100.00;97555.72;5136548;28;20400;-93
2022/09/28 04:21:02;;;;;;;14.32;3.63;;;;;;;11.94;100.00;97524.47;5136486;27;20081;-92
2022/09/28 04:23:30;;;;;;;11.57;3.67;;;;;;;12.04;100.00;97555.03;5136524;27;20043;-93
2022/09/28 04:25:56;;;;;;;14.70;4.65;;;;;;;11.71;100.00;97506.06;5136374;27;20134;-94
2022/09/28 04:31:37;;;;;;;19.33;4.30;;;;;;;11.68;100.00;97521.31;5197092;27;20166;-92
2022/09/28 04:34:03;;;;;;;13.90;3.80;;;;;;;11.60;100.00;97524.41;5196492;27;20034;-93
2022/09/28 04:36:28;;;;;;;16.88;3.95;;;;;;;11.62;100.00;97530.47;5196647;27;20114;-93
2022/09/28 04:38:54;;;;;;;14.50;3.85;;;;;;;11.62;100.00;97534.94;5196771;27;20399;-93
2022/09/28 04:41:22;;;;;;;9.63;3.40;;;;;;;11.48;100.00;97515.22;5196519;27;20137;-92
2022/09/28 04:43:48;;;;;;;11.40;3.97;;;;;;;11.43;100.00;97521.72;5196466;27;20038;-93
2022/09/28 04:46:13;;;;;;;17.30;3.70;;;;;;;11.59;100.00;97546.63;5196686;27;20098;-94
2022/09/28 04:48:41;;;;;;;13.95;3.58;;;;;;;11.56;100.00;97544.13;5196229;27;20046;-93
2022/09/28 04:51:07;;;;;;;22.10;4.38;;;;;;;11.35;100.00;97518.59;5196224;27;20048;-94
2022/09/28 04:53:33;;;;;;;19.85;4.38;;;;;;;11.55;100.00;97553.03;5196390;27;20034;-91
2022/09/28 04:56:02;;;;;;;18.20;4.57;;;;;;;11.44;100.00;97523.44;5196925;27;20041;-93
2022/09/28 04:58:28;;;;;;;14.90;5.45;;;;;;;11.47;100.00;97542.78;5196395;27;20046;-94
2022/09/28 05:00:57;;;;;;;13.10;3.83;;;;;;;11.56;100.00;97554.78;5196424;27;20082;-93
2022/09/28 05:03:23;;;;;;;28.43;4.53;;;;;;;11.43;100.00;97540.38;5198144;27;20098;-93
2022/09/28 05:05:50;;;;;;;16.75;5.05;;;;;;;11.35;100.00;97529.22;5197186;27;20046;-94
2022/09/28 05:08:16;;;;;;;15.55;3.50;;;;;;;11.46;100.00;97540.19;5197645;27;20042;-93
2022/09/28 05:10:42;;;;;;;18.42;4.32;;;;;;;11.50;100.00;97529.31;5196330;27;20038;-94
2022/09/28 05:13:09;;;;;;;13.57;4.57;;;;;;;11.83;100.00;97564.94;5196860;27;20471;-95
2022/09/28 05:15:36;;;;;;;14.00;3.88;;;;;;;11.88;100.00;97568.25;5196412;27;20141;-93
2022/09/28 05:18:02;;;;;;;19.55;4.28;;;;;;;11.96;100.00;97563.41;5192979;27;20030;-93
2022/09/28 05:20:28;;;;;;;14.45;4.13;;;;;;;12.04;100.00;97555.88;5180588;27;20155;-93
2022/09/28 05:22:55;;;;;;;18.98;4.32;;;;;;;12.07;100.00;97533.53;5183924;27;20116;-94
2022/09/28 05:25:22;;;;;;;16.48;4.80;;;;;;;12.20;100.00;97547.06;5179830;27;20038;-93
2022/09/28 05:27:54;;;;;;;20.05;4.53;;;;;;;12.25;100.00;97550.34;5177086;27;20043;-94
2022/09/28 05:30:21;;;;;;;13.43;4.90;;;;;;;12.28;100.00;97532.38;5196239;27;20043;-93
2022/09/28 05:32:49;;;;;;;14.98;4.20;;;;;;;12.57;100.00;97564.59;5179707;27;20098;-93
2022/09/28 05:35:16;;;;;;;18.67;4.73;;;;;;;12.46;100.00;97546.53;5188359;27;20080;-93
2022/09/28 05:37:42;;;;;;;20.83;5.88;;;;;;;12.39;100.00;97529.16;5197999;27;20038;-94
2022/09/28 05:40:11;;;;;;;17.58;5.80;;;;;;;12.45;100.00;97534.16;5191816;27;20382;-94
2022/09/28 05:42:36;;;;;;;17.63;5.40;;;;;;;12.47;100.00;97539.38;5182008;27;20050;-94
2022/09/28 05:45:03;;;;;;;15.05;5.13;;;;;;;12.60;100.00;97556.47;5181483;27;20483;-93
2022/09/28 05:47:29;;;;;;;13.70;5.15;;;;;;;12.66;100.00;97552.56;5180532;27;20054;-94
2022/09/28 05:49:55;;;;;;;17.77;5.15;;;;;;;12.62;100.00;97541.22;5180906;27;20448;-94
2022/09/28 05:52:21;;;;;;;13.25;5.18;;;;;;;12.73;100.00;97553.97;5180989;27;20403;-94
2022/09/28 05:54:47;;;;;;;17.08;6.75;;;;;;;12.82;100.00;97573.94;5181099;27;20399;-94
2022/09/28 05:57:14;;;;;;;13.93;5.38;;;;;;;12.81;100.00;97558.88;5182400;27;20039;-92
2022/09/28 05:59:40;;;;;;;21.55;5.63;;;;;;;12.85;100.00;97557.75;5169152;27;20042;-93
2022/09/28 06:02:06;;;;;;;19.60;5.70;;;;;;;12.76;100.00;97535.13;5186006;27;20041;-93
2022/09/28 06:04:32;;;;;;;20.05;5.80;;;;;;;12.91;100.00;97557.41;5176639;27;20034;-93
2022/09/28 06:06:58;;;;;;;17.60;5.78;;;;;;;12.86;100.00;97532.78;5176250;27;20133;-93
2022/09/28 06:09:24;;;;;;;14.25;5.80;;;;;;;12.90;100.00;97529.88;5185324;27;20038;-93
2022/09/28 06:11:50;;;;;;;16.02;5.25;;;;;;;12.92;100.00;97522.66;5169816;27;20042;-93
2022/09/28 06:14:17;;;;;;;15.52;5.38;;;;;;;12.97;100.00;97517.06;5170681;27;20066;-95
2022/09/28 06:16:43;;;;;;;14.45;5.72;;;;;;;13.12;100.00;97539.34;5185509;27;20045;-93
2022/09/28 06:19:10;;;;;;;17.92;5.38;;;;;;;13.11;100.00;97534.94;5170354;27;20060;-93
2022/09/28 06:21:37;;;;;;;21.88;6.70;;;;;;;13.34;100.00;97560.38;5177651;27;20038;-91
2022/09/28 06:24:03;;;;;;;15.48;5.45;;;;;;;13.24;100.00;97522.59;5174686;27;20034;-92
2022/09/28 06:26:29;;;;;;;19.45;6.18;;;;;;;13.38;100.00;97537.00;5183195;27;20100;-92
2022/09/28 06:28:55;;;;;;;15.13;5.93;;;;;;;13.52;100.00;97556.59;5164278;27;20046;-94
2022/09/28 06:31:23;;;;;;;16.55;5.57;;;;;;;13.34;100.00;97509.63;5183108;27;20042;-93
2022/09/28 06:33:50;;;;;;;19.13;5.57;;;;;;;13.37;100.00;97504.09;5183696;27;20042;-93
2022/09/28 06:36:16;;;;;;;27.90;5.82;;;;;;;13.56;100.00;97531.44;5185386;27;20045;-93
2022/09/28 06:38:42;;;;;;;16.65;6.05;;;;;;;13.51;100.00;97511.28;5179578;27;20479;-94
2022/09/28 06:41:08;;;;;;;16.42;5.85;;;;;;;13.57;100.00;97510.94;5185544;27;20050;-94
2022/09/28 06:43:35;;;;;;;21.40;5.50;;;;;;;13.85;100.00;97554.72;5171984;27;20047;-93
2022/09/28 06:46:01;;;;;;;15.15;5.57;;;;;;;13.58;100.00;97518.00;5165096;27;20514;-94
2022/09/28 06:48:30;;;;;;;18.75;5.45;;;;;;;13.73;100.00;97545.63;5174449;27;20093;-93
2022/09/28 06:50:56;;;;;;;22.85;6.10;;;;;;;13.66;100.00;97536.22;5166269;27;20045;-94
2022/09/28 06:53:22;;;;;;;20.08;6.25;;;;;;;13.55;100.00;97536.88;5178274;27;20106;-94
2022/09/28 06:55:48;;;;;;;15.02;6.45;;;;;;;13.44;100.00;97531.31;5182815;27;20084;-92
2022/09/28 06:58:16;;;;;;;22.92;6.32;;;;;;;13.45;100.00;97541.06;5177045;27;20050;-92
2022/09/28 07:00:42;;;;;;;19.85;7.53;;;;;;;13.51;100.00;97552.22;5171726;27;20532;-93
2022/09/28 07:03:12;;;;;;;26.67;7.43;;;;;;;13.36;100.00;97523.75;5184437;27;20085;-91
2022/09/28 07:05:42;;;;;;;24.17;7.05;;;;;;;13.47;100.00;97528.47;5184395;27;20510;-94
2022/09/28 07:08:08;;;;;;;24.08;7.35;;;;;;;13.66;100.00;97533.56;5183660;27;20049;-93
2022/09/28 07:10:34;;;;;;;20.77;6.40;;;;;;;13.66;100.00;97525.56;5172339;27;20034;-93
2022/09/28 07:13:02;;;;;;;28.35;6.93;;;;;;;13.81;100.00;97551.34;5172644;27;20038;-92
2022/09/28 07:15:29;;;;;;;17.95;6.43;;;;;;;13.86;100.00;97551.09;5183836;27;20106;-93
2022/09/28 07:17:56;;;;;;;15.52;6.72;;;;;;;13.80;100.00;97524.75;5183089;27;20051;-93
2022/09/28 07:20:24;;;;;;;23.45;7.80;;;;;;;14.03;100.00;97555.41;5183271;27;20073;-93
2022/09/28 07:22:53;;;;;;;23.35;7.25;;;;;;;14.11;100.00;97570.03;5183810;27;20042;-93
2022/09/28 07:25:19;;;;;;;20.85;6.25;;;;;;;14.02;100.00;97543.00;5183912;27;20034;-93
2022/09/28 07:27:46;;;;;;;25.48;7.13;;;;;;;14.29;100.00;97562.72;5168247;27;20076;-94
2022/09/28 07:30:12;;;;;;;20.40;7.28;;;;;;;14.49;100.00;97568.66;5173609;27;20050;-93
2022/09/28 07:32:39;;;;;;;26.52;7.25;;;;;;;14.43;100.00;97535.13;5182737;27;20042;-93
2022/09/28 07:35:07;;;;;;;25.67;7.57;;;;;;;14.69;100.00;97568.28;5165011;27;20056;-93
2022/09/28 07:37:34;;;;;;;20.25;6.63;;;;;;;14.57;100.00;97548.53;5171099;27;20041;-92
2022/09/28 07:43:05;;;;;;;24.10;8.23;;;;;;;14.81;100.00;97561.28;5111682;27;20374;-93
2022/09/28 07:45:34;;;;;;;14.02;6.55;;;;;;;15.01;100.00;97562.72;5077560;28;20157;-94
2022/09/28 07:48:00;;;;;;;;;;;;;;;15.18;100.00;97565.16;5073932;28;20041;-92
2022/09/28 07:50:26;;;;;;;29.00;7.50;;;;;;;15.15;100.00;97540.38;5078557;28;19920;-93
2022/09/28 07:52:52;;;;;;;16.73;5.00;;;;;;;15.34;98.29;97556.13;5078053;28;20066;-92
2022/09/28 07:55:18;;;;;;;18.70;4.57;;;;;;;15.26;96.36;97528.97;5078015;28;20072;-93
2022/09/28 07:57:45;;;;;;;13.88;4.07;;;;;;;15.37;96.50;97532.66;5077708;28;20045;-95
2022/09/28 08:00:14;;;;;;;14.48;4.47;;;;;;;15.61;96.68;97545.38;5076297;28;20037;-95
2022/09/28 08:02:40;;;;;;;17.88;4.50;;;;;;;15.53;96.46;97532.50;5076760;28;20069;-93
2022/09/28 08:05:08;;;;;;;16.20;3.92;;;;;;;15.38;96.77;97530.84;5076394;28;20045;-94
2022/09/28 08:07:37;;;;;;;18.13;5.57;;;;;;;15.18;98.09;97548.25;5075165;28;20486;-92
2022/09/28 08:10:03;;;;;;;13.00;4.67;;;;;;;15.16;96.84;97571.56;5072460;28;20094;-94
2022/09/28 08:12:29;;;;;;;13.38;4.40;;;;;;;14.89;98.77;97537.56;5075756;28;20041;-95
2022/09/28 08:14:55;;;;;;;20.00;4.30;;;;;;;14.81;100.00;97542.56;5073996;28;20049;-94
2022/09/28 08:17:23;;;;;;;20.45;5.22;;;;;;;14.98;100.00;97555.75;5077703;28;20499;-94
2022/09/28 08:22:49;;;;;;;18.27;4.50;;;;;;;15.14;100.00;97549.38;5160701;27;20374;-93
2022/09/28 08:25:15;;;;;;;17.17;4.22;;;;;;;15.21;100.00;97548.03;5160481;27;20053;-93
2022/09/28 08:27:41;;;;;;;16.77;4.70;;;;;;;15.43;100.00;97576.94;5161376;27;20134;-94
2022/09/28 08:30:08;;;;;;;18.60;5.32;;;;;;;15.49;99.48;97554.25;5159695;27;20575;-93
2022/09/28 08:32:34;;;;;;;15.32;4.88;;;;;;;15.87;100.00;97583.00;5157356;27;20043;-93
2022/09/28 08:35:00;;;;;;;17.00;4.28;;;;;;;16.23;98.92;97585.84;5138552;27;20039;-93
2022/09/28 08:37:26;;;;;;;18.60;5.22;;;;;;;16.49;93.58;97585.00;5155278;27;20034;-93
2022/09/28 08:39:53;;;;;;;16.60;5.82;;;;;;;16.55;93.38;97566.66;5142370;27;20043;-93
2022/09/28 08:42:32;;;;;;;24.13;5.22;;;;;;;16.74;91.03;97576.06;5141054;27;20031;-93
2022/09/28 08:45:06;;;;;;;21.27;5.68;;;;;;;16.93;89.29;97581.88;5145472;27;20054;-93
2022/09/28 08:50:52;;;;;;;19.33;4.70;;;;;;;17.01;87.90;97563.38;5077150;28;20360;-95
2022/09/28 08:53:35;;;;;;;30.30;6.63;;;;;;;17.03;87.41;97574.88;5074212;28;20070;-93
2022/09/28 08:56:06;;;;;;;17.88;4.75;;;;;;;16.78;86.53;97559.63;5074563;28;20049;-93
2022/09/28 08:58:34;;;;;;;19.08;6.75;;;;;;;16.93;86.59;97597.97;5077154;28;20048;-92
2022/09/28 09:01:06;;;;;;;20.77;5.28;;;;;;;16.75;87.51;97575.13;5077496;28;20044;-94
2022/09/28 09:03:35;;;;;;;16.63;4.88;;;;;;;17.00;87.73;97612.72;5074678;28;20390;-93
2022/09/28 09:06:12;;;;;;;21.17;5.22;;;;;;;16.96;88.23;97597.78;5073994;28;20139;-93
2022/09/28 09:08:48;;;;;;;20.67;5.65;;;;;;;17.04;86.59;97594.53;5077053;28;20041;-92
2022/09/28 09:11:28;;;;;;;19.17;5.45;;;;;;;16.83;86.86;97572.78;5077618;28;20051;-93
2022/09/28 09:14:20;;;;;;;24.17;6.30;;;;;;;16.97;87.64;97591.44;5073056;28;20102;-93
2022/09/28 09:16:55;;;;;;;24.00;5.20;;;;;;;17.20;86.49;97591.63;5076524;28;20375;-94
2022/09/28 09:19:35;;;;;;;19.23;6.38;;;;;;;17.23;85.60;97573.41;5076403;28;20048;-94
2022/09/28 09:22:14;;;;;;;16.83;5.63;;;;;;;17.46;84.57;97587.00;5078293;28;20053;-94
2022/09/28 09:24:48;;;;;;;22.20;6.35;;;;;;;17.59;83.74;97586.97;5077223;28;20131;-92
2022/09/28 09:27:31;;;;;;;21.55;5.40;;;;;;;17.62;81.10;97559.84;5076129;28;20044;-94
2022/09/28 09:30:05;;;;;;;17.23;5.38;;;;;;;17.80;81.52;97571.91;5071974;28;20086;-91
2022/09/28 09:32:45;;;;;;;17.88;6.15;;;;;;;18.03;81.14;97585.47;5074548;28;20052;-94
2022/09/28 09:35:29;;;;;;;21.17;6.35;;;;;;;18.06;79.71;97571.75;5074939;28;20456;-93
2022/09/28 09:38:17;;;;;;;20.25;6.43;;;;;;;17.50;78.25;97561.63;5060086;28;20411;-93
2022/09/28 09:41:05;;;;;;;18.38;5.43;;;;;;;17.62;80.32;97573.28;5073416;28;20402;-92
2022/09/28 09:43:59;;;;;;;24.75;5.43;;;;;;;18.13;80.33;97591.84;5070249;28;20048;-91
2022/09/28 09:46:35;;;;;;;23.20;5.15;;;;;;;18.47;78.66;97575.75;5070869;28;20043;-90
2022/09/28 09:49:06;;;;;;;24.80;5.75;;;;;;;18.97;74.59;97581.69;5066691;28;20394;-90
2022/09/28 09:51:38;;;;;;;30.95;7.00;;;;;;;18.99;71.38;97546.56;5073352;28;20067;-94
2022/09/28 09:54:15;;;;;;;25.20;5.50;;;;;;;18.69;74.04;97580.31;5071537;28;20033;-94
2022/09/28 09:56:46;;;;;;;19.73;5.28;;;;;;;18.72;74.94;97541.53;5068573;28;20048;-92
2022/09/28 09:59:17;;;;;;;23.80;5.57;;;;;;;18.99;74.17;97550.09;5071202;28;20033;-92
2022/09/28 10:01:43;;;;;;;21.98;5.13;;;;;;;19.08;73.48;97545.81;5062975;28;20439;-93
2022/09/28 10:04:18;;;;;;;25.75;5.53;;;;;;;18.64;74.56;97521.44;5064075;28;20057;-93
2022/09/28 10:06:47;;;;;;;20.48;5.57;;;;;;;18.42;76.31;97553.75;5066802;28;20056;-94
2022/09/28 10:09:22;;;;;;;14.88;5.65;;;;;;;18.71;77.13;97580.19;5062562;28;20037;-92
2022/09/28 10:11:50;;;;;;;15.95;5.05;;;;;;;18.65;77.72;97560.88;5054663;28;20517;-91
2022/09/28 10:14:20;;;;;;;25.67;5.80;;;;;;;18.75;77.47;97555.59;5063079;28;20044;-94
2022/09/28 10:16:47;;;;;;;21.90;5.90;;;;;;;18.85;75.85;97535.06;5062897;28;20099;-92
2022/09/28 10:19:24;;;;;;;23.40;5.50;;;;;;;19.10;75.95;97549.22;5061322;28;20037;-94
2022/09/28 10:21:51;;;;;;;24.33;6.20;;;;;;;19.20;75.64;97554.75;5064541;28;20061;-93
2022/09/28 10:24:29;;;;;;;32.20;5.65;;;;;;;19.26;74.88;97540.78;5063429;28;20037;-94
2022/09/28 10:27:02;;;;;;;23.48;6.80;;;;;;;19.27;74.83;97537.06;5061432;28;20124;-94
2022/09/28 10:29:40;;;;;;;28.65;6.22;;;;;;;19.38;73.43;97547.81;5062228;28;20041;-94
2022/09/28 10:32:18;;;;;;;23.02;5.78;;;;;;;19.46;75.77;97561.53;5057347;28;20429;-94
2022/09/28 10:34:44;;;;;;;15.90;6.18;;;;;;;19.74;74.79;97569.22;5061370;28;20437;-94
2022/09/28 10:37:11;;;;;;;22.80;5.93;;;;;;;19.00;75.16;97532.97;5061358;28;20053;-94
2022/09/28 10:39:46;;;;;;;21.50;6.28;;;;;;;19.53;74.98;97543.00;5060166;28;20136;-94
2022/09/28 10:42:18;;;;;;;17.15;5.45;;;;;;;19.88;73.61;97548.16;5059940;28;20040;-95
2022/09/28 10:44:52;;;;;;;18.92;5.57;;;;;;;19.97;73.30;97554.63;5058921;28;20469;-94
2022/09/28 10:47:21;;;;;;;20.95;5.55;;;;;;;19.80;72.61;97521.00;5060361;28;20037;-94
2022/09/28 10:49:49;;;;;;;24.98;7.35;;;;;;;19.99;73.54;97549.94;5055627;28;20046;-93
2022/09/28 10:52:37;;;;;;;22.23;6.70;;;;;;;20.16;72.76;97542.28;5060641;28;20051;-95
2022/09/28 10:55:27;;;;;;;25.27;7.10;;;;;;;19.84;72.09;97524.28;5052035;28;20055;-95
2022/09/28 10:57:53;;;;;;;22.85;6.43;;;;;;;19.79;72.56;97513.88;5061741;28;20056;-92
2022/09/28 11:00:39;;;;;;;26.23;6.95;;;;;;;20.26;72.55;97529.69;5056877;28;20051;-95
2022/09/28 11:03:14;;;;;;;21.42;6.22;;;;;;;20.51;70.09;97533.81;5054268;28;20069;-94
2022/09/28 11:05:42;;;;;;;20.83;6.25;;;;;;;20.65;69.84;97527.25;5055811;28;20141;-94
2022/09/28 11:08:22;;;;;;;20.67;5.70;;;;;;;20.60;69.26;97492.53;5053801;28;20041;-92
2022/09/28 11:11:01;;;;;;;21.10;6.70;;;;;;;21.05;67.95;97511.03;5052448;28;20067;-93
2022/09/28 11:13:27;;;;;;;23.75;6.80;;;;;;;21.26;68.09;97488.47;5051622;28;20038;-92
2022/09/28 11:15:53;;;;;;;22.95;6.45;;;;;;;21.27;67.00;97487.44;5056439;28;20033;-93
2022/09/28 11:18:24;;;;;;;30.45;6.47;;;;;;;20.96;68.24;97492.09;5058132;28;20388;-94
2022/09/28 11:20:50;;;;;;;29.80;7.20;;;;;;;21.35;67.26;97509.25;5057794;28;20048;-94
2022/09/28 11:23:20;;;;;;;25.08;7.03;;;;;;;20.62;68.95;97471.63;5057477;28;20094;-92
2022/09/28 11:25:58;;;;;;;21.52;7.05;;;;;;;20.95;69.20;97483.13;5057987;28;20543;-95
2022/09/28 11:28:28;;;;;;;;;;;;;;;21.00;67.29;97504.34;5052434;28;20047;-95
2022/09/28 11:30:54;;;;;;;26.70;7.05;;;;;;;20.36;68.63;97456.84;5055668;28;19951;-95
2022/09/28 11:33:27;;;;;;;23.67;6.63;;;;;;;20.23;69.65;97470.56;5055592;28;20033;-95
2022/09/28 11:36:00;;;;;;;29.55;6.97;;;;;;;20.29;70.90;97495.19;5050099;28;20120;-93
2022/09/28 11:38:34;;;;;;;20.77;4.88;;;;;;;19.60;68.68;97467.84;5057691;28;20045;-94
2022/09/28 11:41:16;;;;;;;22.80;5.85;;;;;;;19.67;70.97;97463.66;5056583;28;20044;-95
2022/09/28 11:44:22;;;;;;;20.52;5.80;;;;;;;19.76;70.43;97444.03;5054894;28;20045;-94